createdAt,value
2023-03-10T00:00:32.347Z,21.18
2023-03-10T00:03:46.867Z,19.88
2023-03-10T00:06:59.103Z,20.60
2023-03-10T00:10:14.317Z,21.73
2023-03-10T00:13:26.278Z,20.93
2023-03-10T00:16:38.678Z,24.00
2023-03-10T00:19:50.842Z,22.25
2023-03-10T00:23:02.831Z,21.50
2023-03-10T00:26:17.635Z,21.53
2023-03-10T00:29:30.165Z,20.33
2023-03-10T00:32:43.779Z,22.83
2023-03-10T00:35:56.040Z,23.10
2023-03-10T00:39:11.722Z,23.78
2023-03-10T00:42:23.890Z,23.43
2023-03-10T00:45:37.378Z,22.80
2023-03-10T00:48:50.067Z,23.93
2023-03-10T00:52:02.285Z,23.98
2023-03-10T00:55:16.332Z,23.80
2023-03-10T00:58:28.737Z,20.68
2023-03-10T01:01:44.716Z,21.05
2023-03-10T01:04:57.087Z,22.00
2023-03-10T01:08:09.732Z,23.38
2023-03-10T01:11:24.231Z,22.05
2023-03-10T01:14:36.390Z,21.30
2023-03-10T01:17:48.768Z,22.85
2023-03-10T01:21:01.141Z,23.70
2023-03-10T01:24:15.964Z,24.33
2023-03-10T01:27:28.134Z,23.25
2023-03-10T01:30:40.554Z,22.23
2023-03-10T01:33:53.303Z,20.65
2023-03-10T01:37:05.767Z,22.60
2023-03-10T01:40:22.196Z,24.30
2023-03-10T01:43:40.742Z,22.95
2023-03-10T01:46:59.291Z,23.73
2023-03-10T01:50:16.842Z,22.60
2023-03-10T01:53:30.440Z,23.38
2023-03-10T01:56:46.855Z,25.40
2023-03-10T02:00:01.339Z,21.73
2023-03-10T02:03:19.662Z,5.63
2023-03-10T02:06:33.875Z,3.63
2023-03-10T02:09:50.144Z,2.93
2023-03-10T02:13:02.430Z,2.30
2023-03-10T02:16:15.937Z,2.50
2023-03-10T02:19:42.014Z,2.28
2023-03-10T02:22:56.867Z,2.30
2023-03-10T02:26:15.220Z,2.08
2023-03-10T02:29:32.670Z,5.13
2023-03-10T02:32:50.078Z,16.70
2023-03-10T02:36:08.282Z,21.55
2023-03-10T02:39:20.527Z,22.48
2023-03-10T02:42:37.130Z,15.78
2023-03-10T02:45:52.267Z,7.43
2023-03-10T02:49:10.738Z,2.45
2023-03-10T02:52:33.058Z,1.90
2023-03-10T02:55:45.734Z,1.88
2023-03-10T02:58:58.350Z,1.30
2023-03-10T03:02:10.711Z,1.65
2023-03-10T03:05:24.701Z,1.33
2023-03-10T03:08:37.498Z,1.48
2023-03-10T03:11:51.162Z,1.35
2023-03-10T03:15:03.288Z,1.50
2023-03-10T03:18:15.632Z,1.28
2023-03-10T03:21:27.984Z,1.60
2023-03-10T03:24:40.508Z,1.38
2023-03-10T03:27:53.852Z,1.60
2023-03-10T03:31:06.103Z,1.53
2023-03-10T03:35:23.897Z,1.60
2023-03-10T03:38:37.236Z,1.70
2023-03-10T03:41:51.829Z,1.43
2023-03-10T03:45:04.747Z,1.40
2023-03-10T03:48:21.272Z,1.38
2023-03-10T03:51:33.903Z,1.43
2023-03-10T03:54:46.446Z,1.28
2023-03-10T03:57:58.880Z,1.55
2023-03-10T04:01:12.868Z,1.30
2023-03-10T04:04:26.714Z,1.38
2023-03-10T04:07:39.706Z,1.20
2023-03-10T04:11:00.093Z,1.15
2023-03-10T04:14:12.593Z,1.60
2023-03-10T04:17:25.038Z,1.65
2023-03-10T04:20:37.872Z,1.50
2023-03-10T04:23:50.476Z,1.23
2023-03-10T04:27:04.800Z,1.60
2023-03-10T04:30:21.049Z,1.80
2023-03-10T04:33:34.660Z,1.50
2023-03-10T04:36:47.056Z,1.60
2023-03-10T04:39:59.778Z,1.70
2023-03-10T04:43:11.969Z,1.55
2023-03-10T04:46:24.490Z,1.75
2023-03-10T04:49:37.120Z,1.73
2023-03-10T04:52:50.476Z,1.73
2023-03-10T04:56:04.896Z,1.75
2023-03-10T04:59:18.042Z,1.63
2023-03-10T05:02:30.398Z,1.55
2023-03-10T05:05:44.434Z,1.83
2023-03-10T05:08:58.559Z,1.15
2023-03-10T05:12:12.538Z,1.48
2023-03-10T05:15:25.709Z,1.60
2023-03-10T05:18:38.217Z,1.80
2023-03-10T05:21:50.257Z,1.80
2023-03-10T05:25:02.429Z,1.65
2023-03-10T05:28:15.046Z,1.78
2023-03-10T05:31:27.846Z,1.50
2023-03-10T05:34:45.092Z,2.48
2023-03-10T05:37:57.711Z,1.85
2023-03-10T05:41:14.617Z,2.40
2023-03-10T05:44:27.349Z,2.18
2023-03-10T05:47:40.536Z,2.00
2023-03-10T05:51:02.650Z,2.30
2023-03-10T05:54:16.157Z,2.43
2023-03-10T05:57:28.465Z,1.98
2023-03-10T06:00:40.675Z,1.98
2023-03-10T06:03:52.958Z,2.18
2023-03-10T06:07:05.697Z,3.73
2023-03-10T06:10:18.962Z,1.70
2023-03-10T06:13:31.537Z,1.70
2023-03-10T06:16:45.047Z,1.98
2023-03-10T06:19:57.389Z,1.78
2023-03-10T06:23:09.793Z,1.78
2023-03-10T06:26:24.353Z,1.80
2023-03-10T06:29:36.675Z,3.00
2023-03-10T06:32:48.865Z,2.18
2023-03-10T06:36:02.167Z,1.70
2023-03-10T06:39:14.778Z,1.78
2023-03-10T06:42:26.829Z,1.98
2023-03-10T06:45:39.043Z,2.30
2023-03-10T06:48:51.787Z,2.10
2023-03-10T06:52:04.505Z,1.78
2023-03-10T06:55:18.034Z,2.00
2023-03-10T06:58:30.320Z,1.93
2023-03-10T07:01:42.942Z,1.70
2023-03-10T07:04:55.321Z,1.60
2023-03-10T07:08:07.570Z,1.80
2023-03-10T07:11:20.994Z,1.65
2023-03-10T07:14:33.159Z,1.68
2023-03-10T07:17:45.505Z,1.83
2023-03-10T07:20:57.718Z,1.70
2023-03-10T07:24:11.668Z,1.58
2023-03-10T07:27:23.969Z,1.80
2023-03-10T07:30:36.637Z,1.85
2023-03-10T07:33:49.806Z,1.60
2023-03-10T07:37:02.328Z,1.70
2023-03-10T07:40:17.953Z,1.50
2023-03-10T07:43:31.101Z,1.75
2023-03-10T07:46:43.694Z,1.80
2023-03-10T07:49:56.086Z,1.10
2023-03-10T07:53:08.698Z,1.10
2023-03-10T07:56:21.903Z,0.90
2023-03-10T07:59:33.927Z,1.20
2023-03-10T08:02:46.525Z,1.10
2023-03-10T08:05:59.925Z,1.20
2023-03-10T08:09:12.302Z,0.90
2023-03-10T08:12:25.771Z,1.10
2023-03-10T08:15:37.890Z,0.93
2023-03-10T08:18:50.754Z,1.28
2023-03-10T08:22:03.773Z,0.98
2023-03-10T08:25:17.321Z,1.13
2023-03-10T08:28:30.639Z,1.20
2023-03-10T08:31:43.519Z,1.10
2023-03-10T08:34:55.741Z,1.23
2023-03-10T08:38:09.719Z,0.78
2023-03-10T08:41:26.246Z,1.10
2023-03-10T08:44:38.446Z,1.40
2023-03-10T08:47:50.644Z,1.15
2023-03-10T08:51:03.155Z,1.30
2023-03-10T08:54:18.648Z,1.20
2023-03-10T08:57:30.754Z,1.50
2023-03-10T09:00:43.142Z,1.48
2023-03-10T09:03:55.516Z,1.08
2023-03-10T09:07:07.557Z,1.40
2023-03-10T09:10:20.339Z,1.50
2023-03-10T09:13:32.590Z,1.43
2023-03-10T09:16:45.878Z,1.45
2023-03-10T09:19:58.032Z,1.08
2023-03-10T09:23:10.870Z,0.90
2023-03-10T09:26:23.310Z,0.98
2023-03-10T09:29:42.949Z,1.03
2023-03-10T09:32:50.488Z,0.85
2023-03-10T09:36:07.463Z,1.15
2023-03-10T09:39:17.876Z,1.18
2023-03-10T09:42:48.909Z,0.90
2023-03-10T09:46:06.313Z,1.30
2023-03-10T09:49:23.772Z,2.03
2023-03-10T09:52:42.999Z,1.20
2023-03-10T09:55:55.712Z,1.60
2023-03-10T09:59:14.196Z,1.20
2023-03-10T10:02:30.594Z,1.13
2023-03-10T10:09:04.571Z,1.33
2023-03-10T10:12:22.262Z,1.33
2023-03-10T10:15:36.026Z,1.18
2023-03-10T10:18:52.712Z,1.00
2023-03-10T10:22:12.137Z,0.98
2023-03-10T10:25:28.904Z,1.65
2023-03-10T10:28:49.184Z,1.38
2023-03-10T10:32:15.564Z,1.20
2023-03-10T10:35:32.543Z,1.03
2023-03-10T10:41:54.717Z,1.10
2023-03-10T10:45:10.459Z,1.33
2023-03-10T10:48:43.231Z,1.18
2023-03-10T10:52:08.376Z,1.30
2023-03-10T10:55:35.276Z,2.55
2023-03-10T10:58:50.035Z,1.33
2023-03-10T11:02:05.417Z,1.50
2023-03-10T11:05:24.499Z,1.10
2023-03-10T11:08:44.415Z,1.15
2023-03-10T11:12:09.364Z,1.30
2023-03-10T11:15:27.378Z,1.35
2023-03-10T11:18:43.558Z,1.30
2023-03-10T11:22:00.662Z,1.20
2023-03-10T11:25:22.927Z,1.50
2023-03-10T11:28:52.179Z,1.70
2023-03-10T11:32:11.437Z,1.63
2023-03-10T11:35:31.980Z,1.85
2023-03-10T11:38:46.628Z,1.83
2023-03-10T11:42:04.408Z,1.40
2023-03-10T11:45:33.212Z,1.50
2023-03-10T11:48:59.303Z,1.55
2023-03-10T11:52:17.152Z,1.30
2023-03-10T11:55:30.530Z,1.45
2023-03-10T11:58:50.403Z,1.40
2023-03-10T12:02:07.964Z,1.63
2023-03-10T12:05:27.126Z,1.48
2023-03-10T12:08:41.142Z,1.30
2023-03-10T12:11:54.240Z,1.50
2023-03-10T12:15:13.381Z,1.43
2023-03-10T12:18:26.931Z,1.45
2023-03-10T12:21:39.991Z,1.60
2023-03-10T12:24:53.573Z,1.45
2023-03-10T12:28:33.324Z,1.78
2023-03-10T12:31:57.132Z,1.15
2023-03-10T12:35:52.581Z,1.90
2023-03-10T12:39:05.879Z,2.00
2023-03-10T12:42:39.822Z,1.38
2023-03-10T12:45:53.831Z,1.58
2023-03-10T12:49:26.708Z,1.38
2023-03-10T12:52:51.810Z,1.75
2023-03-10T12:56:29.327Z,2.35
2023-03-10T12:59:48.503Z,2.00
2023-03-10T13:03:05.268Z,1.23
2023-03-10T13:09:43.639Z,1.48
2023-03-10T13:12:59.547Z,1.23
2023-03-10T13:16:20.307Z,1.20
2023-03-10T13:19:35.698Z,1.45
2023-03-10T13:22:57.783Z,1.80
2023-03-10T13:26:18.929Z,1.73
2023-03-10T13:29:30.955Z,1.63
2023-03-10T13:32:43.232Z,2.13
2023-03-10T13:35:55.719Z,2.15
2023-03-10T13:39:12.426Z,2.13
2023-03-10T13:42:43.315Z,1.18
2023-03-10T13:45:45.052Z,1.60
2023-03-10T13:48:58.284Z,1.85
2023-03-10T13:52:15.957Z,1.73
2023-03-10T13:55:28.765Z,1.30
2023-03-10T13:58:41.040Z,1.85
2023-03-10T14:01:57.774Z,1.50
2023-03-10T14:05:11.834Z,1.35
2023-03-10T14:08:33.929Z,3.53
2023-03-10T14:11:49.163Z,1.60
2023-03-10T14:15:02.378Z,1.45
2023-03-10T14:18:27.967Z,1.53
2023-03-10T14:21:52.412Z,1.73
2023-03-10T14:24:55.822Z,1.50
2023-03-10T14:28:17.674Z,1.60
2023-03-10T14:31:30.923Z,1.88
2023-03-10T14:34:43.621Z,1.78
2023-03-10T14:37:55.937Z,1.70
2023-03-10T14:41:10.087Z,1.95
2023-03-10T14:44:22.087Z,1.70
2023-03-10T14:47:34.293Z,1.70
2023-03-10T14:50:46.838Z,1.45
2023-03-10T14:53:59.032Z,1.70
2023-03-10T14:57:11.736Z,1.68
2023-03-10T15:00:27.784Z,2.18
2023-03-10T15:06:50.109Z,2.25
2023-03-10T15:10:11.250Z,1.43
2023-03-10T15:13:18.260Z,1.60
2023-03-10T15:16:30.312Z,1.70
2023-03-10T15:19:42.397Z,2.03
2023-03-10T15:22:55.436Z,1.65
2023-03-10T15:26:09.746Z,2.25
2023-03-10T15:29:23.947Z,2.13
2023-03-10T15:32:35.969Z,1.65
2023-03-10T15:35:50.065Z,2.00
2023-03-10T15:39:02.432Z,1.88
2023-03-10T15:42:14.809Z,2.15
2023-03-10T15:45:27.657Z,2.08
2023-03-10T15:48:39.956Z,2.00
2023-03-10T15:51:52.060Z,2.10
2023-03-10T15:55:04.558Z,2.00
2023-03-10T15:58:17.025Z,2.25
2023-03-10T16:01:29.145Z,1.80
2023-03-10T16:04:42.263Z,1.80
2023-03-10T16:07:54.830Z,1.95
2023-03-10T16:11:09.182Z,2.00
2023-03-10T16:14:21.096Z,1.93
2023-03-10T16:17:34.818Z,1.70
2023-03-10T16:20:46.823Z,2.23
2023-03-10T16:23:58.737Z,2.30
2023-03-10T16:27:11.208Z,2.00
2023-03-10T16:30:25.733Z,2.00
2023-03-10T16:33:38.346Z,2.00
2023-03-10T16:36:50.514Z,2.20
2023-03-10T16:40:04.600Z,3.20
2023-03-10T16:43:17.800Z,2.38
2023-03-10T16:46:32.248Z,2.45
2023-03-10T16:49:44.468Z,2.10
2023-03-10T16:52:56.876Z,2.70
2023-03-10T16:56:13.646Z,2.93
2023-03-10T16:59:28.331Z,3.55
2023-03-10T17:02:40.262Z,3.53
2023-03-10T17:05:53.805Z,3.95
2023-03-10T17:09:07.432Z,3.35
2023-03-10T17:12:20.033Z,11.18
2023-03-10T17:15:33.295Z,3.80
2023-03-10T17:18:45.263Z,4.83
2023-03-10T17:21:58.456Z,3.73
2023-03-10T17:25:11.793Z,3.93
2023-03-10T17:28:23.832Z,4.08
2023-03-10T17:31:37.468Z,4.50
2023-03-10T17:34:52.355Z,3.68
2023-03-10T17:38:04.400Z,3.70
2023-03-10T17:41:19.022Z,2.33
2023-03-10T17:44:31.636Z,2.13
2023-03-10T17:47:43.948Z,1.98
2023-03-10T17:50:57.188Z,1.85
2023-03-10T17:54:09.696Z,1.65
2023-03-10T17:57:22.078Z,1.78
2023-03-10T18:00:34.856Z,1.50
2023-03-10T18:03:48.440Z,1.55
2023-03-10T18:07:01.289Z,1.55
2023-03-10T18:10:16.932Z,2.08
2023-03-10T18:13:29.351Z,1.90
2023-03-10T18:16:45.288Z,2.68
2023-03-10T18:20:01.066Z,2.60
2023-03-10T18:23:13.337Z,2.83
2023-03-10T18:26:29.692Z,2.73
2023-03-10T18:29:41.886Z,3.55
2023-03-10T18:32:54.156Z,3.33
2023-03-10T18:36:12.270Z,3.40
2023-03-10T18:39:24.490Z,4.98
2023-03-10T18:42:37.379Z,3.08
2023-03-10T18:45:49.445Z,3.58
2023-03-10T18:49:01.487Z,2.90
2023-03-10T18:52:15.766Z,2.75
2023-03-10T18:55:28.050Z,2.90
2023-03-10T18:58:40.260Z,2.93
2023-03-10T19:01:52.619Z,2.73
2023-03-10T19:05:05.380Z,3.18
2023-03-10T19:08:22.722Z,4.63
2023-03-10T19:11:40.259Z,5.10
2023-03-10T19:14:52.450Z,5.20
2023-03-10T19:18:04.515Z,6.38
2023-03-10T19:21:17.157Z,4.93
2023-03-10T19:24:29.134Z,3.68
2023-03-10T19:27:42.391Z,4.30
2023-03-10T19:30:54.348Z,6.00
2023-03-10T19:34:06.771Z,5.18
2023-03-10T19:37:19.473Z,6.98
2023-03-10T19:40:31.932Z,7.05
2023-03-10T19:43:44.643Z,22.20
2023-03-10T19:46:57.221Z,6.25
2023-03-10T19:50:10.313Z,6.03
2023-03-10T19:53:22.512Z,5.23
2023-03-10T19:56:35.036Z,4.50
2023-03-10T19:59:47.581Z,4.38
2023-03-10T20:03:01.266Z,4.35
2023-03-10T20:06:14.140Z,4.88
2023-03-10T20:09:26.407Z,4.80
2023-03-10T20:12:38.719Z,5.35
2023-03-10T20:15:51.431Z,5.25
2023-03-10T20:19:03.659Z,4.65
2023-03-10T20:22:18.117Z,4.80
2023-03-10T20:25:32.220Z,4.60
2023-03-10T20:28:45.495Z,4.48
2023-03-10T20:31:57.663Z,5.58
2023-03-10T20:35:10.979Z,4.78
2023-03-10T20:38:23.397Z,3.85
2023-03-10T20:41:35.812Z,3.93
2023-03-10T20:44:48.265Z,4.03
2023-03-10T20:48:00.475Z,4.48
2023-03-10T20:51:14.931Z,4.35
2023-03-10T20:54:28.596Z,4.10
2023-03-10T20:57:41.392Z,4.00
2023-03-10T21:00:55.567Z,3.63
2023-03-10T21:04:08.051Z,3.50
2023-03-10T21:07:20.620Z,3.40
2023-03-10T21:10:32.916Z,4.18
2023-03-10T21:13:45.391Z,4.30
2023-03-10T21:17:00.074Z,3.60
2023-03-10T21:20:16.714Z,4.03
2023-03-10T21:23:29.042Z,3.80
2023-03-10T21:26:41.655Z,3.85
2023-03-10T21:29:54.520Z,3.95
2023-03-10T21:33:07.187Z,4.35
2023-03-10T21:36:23.719Z,3.88
2023-03-10T21:39:35.840Z,3.93
2023-03-10T21:42:48.052Z,3.95
2023-03-10T21:46:00.504Z,4.38
2023-03-10T21:49:13.006Z,3.50
2023-03-10T21:52:25.532Z,4.03
2023-03-10T21:55:41.833Z,4.00
2023-03-10T21:58:55.230Z,4.43
2023-03-10T22:02:08.471Z,4.25
2023-03-10T22:05:23.387Z,4.13
2023-03-10T22:08:35.595Z,4.13
2023-03-10T22:11:47.799Z,4.55
2023-03-10T22:15:00.167Z,4.75
2023-03-10T22:18:14.621Z,4.40
2023-03-10T22:21:27.035Z,4.85
2023-03-10T22:24:40.369Z,4.75
2023-03-10T22:27:55.191Z,5.03
2023-03-10T22:31:08.093Z,5.25
2023-03-10T22:34:20.470Z,4.73
2023-03-10T22:37:32.678Z,5.25
2023-03-10T22:40:46.093Z,5.08
2023-03-10T22:43:58.822Z,5.03
2023-03-10T22:47:11.946Z,4.85
2023-03-10T22:50:26.907Z,4.93
2023-03-10T22:53:39.286Z,5.45
2023-03-10T22:56:51.627Z,4.35
2023-03-10T23:00:03.845Z,4.80
2023-03-10T23:03:18.158Z,4.98
2023-03-10T23:06:31.969Z,5.80
2023-03-10T23:09:44.153Z,5.98
2023-03-10T23:12:57.965Z,6.05
2023-03-10T23:16:12.195Z,5.63
2023-03-10T23:19:24.659Z,5.10
2023-03-10T23:22:36.765Z,5.83
2023-03-10T23:25:52.044Z,5.50
2023-03-10T23:29:04.384Z,5.58
2023-03-10T23:32:17.244Z,5.40
2023-03-10T23:35:32.878Z,4.48
2023-03-10T23:38:45.921Z,4.70
2023-03-10T23:41:57.899Z,4.85
2023-03-10T23:45:11.736Z,5.05
2023-03-10T23:48:25.738Z,4.23
2023-03-10T23:51:37.844Z,4.45
2023-03-10T23:54:49.897Z,4.33
2023-03-10T23:58:02.275Z,4.78
